Wetterdaten: Woche 27.07.15 - 02.08.15 (KW31)
Datum Zeit Temp. A. Feuchte A. Luftdruck Regen Wind Richtung Sonnenschein ET UV Solar Taupunkt Windchill Windben Empfang
27.07.2015 00:00 15,6 C 72 % 1007,7 hPa 0,0 l/m 0,0 km/h (0 Bft) N 0,00 h 0,000 mm 0,0 UV-I 0 W/m 10,6 C 15,6 C 0,0 km/h (0 Bft) 0,00 %
27.07.2015 01:00 15,4 C 80 % 1007,9 hPa 0,3 l/m 0,0 km/h (0 Bft) N 0,00 h 0,000 mm 0,0 UV-I 0 W/m 11,9 C 15,4 C 0,0 km/h (0 Bft) 0,00 %
27.07.2015 02:00 14,5 C 89 % 1007,7 hPa 0,3 l/m 0,0 km/h (0 Bft) N 0,00 h 0,000 mm 0,0 UV-I 0 W/m 12,8 C 14,5 C 0,3 km/h (0 Bft) 0,00 %
27.07.2015 03:00 14,3 C 93 % 1007,6 hPa 0,0 l/m 0,0 km/h (0 Bft) N 0,00 h 0,000 mm 0,0 UV-I 0 W/m 13,1 C 14,3 C 0,0 km/h (0 Bft) 0,00 %
27.07.2015 04:00 14,1 C 92 % 1008,1 hPa 0,6 l/m 0,9 km/h (0 Bft) W-SW 0,00 h 0,000 mm 0,0 UV-I 0 W/m 12,9 C 14,1 C 2,2 km/h (1 Bft) 0,00 %
27.07.2015 05:00 13,5 C 94 % 1008,3 hPa 0,0 l/m 0,2 km/h (0 Bft) W-SW 0,00 h 0,000 mm 0,0 UV-I 0 W/m 12,6 C 13,5 C 0,7 km/h (0 Bft) 0,00 %
27.07.2015 06:00 13,6 C 96 % 1008,4 hPa 0,9 l/m 0,0 km/h (0 Bft) N 0,00 h 0,000 mm 0,0 UV-I 26 W/m 12,9 C 13,6 C 0,0 km/h (0 Bft) 0,00 %
27.07.2015 07:00 14,0 C 95 % 1007,9 hPa 0,0 l/m 0,0 km/h (0 Bft) N 0,00 h 0,000 mm 1,0 UV-I 43 W/m 13,2 C 14,0 C 0,0 km/h (0 Bft) 0,00 %
27.07.2015 08:00 14,8 C 90 % 1007,9 hPa 0,0 l/m 0,2 km/h (0 Bft) N-NO 0,08 h 0,000 mm 1,0 UV-I 159 W/m 13,2 C 14,8 C 0,3 km/h (0 Bft) 0,00 %
27.07.2015 09:00 15,1 C 90 % 1008,1 hPa 0,6 l/m 0,1 km/h (0 Bft) N 0,00 h 0,000 mm 1,3 UV-I 131 W/m 13,5 C 15,1 C 0,7 km/h (0 Bft) 0,00 %
27.07.2015 10:00 17,5 C 81 % 1007,8 hPa 0,0 l/m 0,2 km/h (0 Bft) N-NO 0,00 h 0,000 mm 1,7 UV-I 163 W/m 14,3 C 17,5 C 1,0 km/h (0 Bft) 0,00 %
27.07.2015 11:00 18,3 C 77 % 1007,6 hPa 0,0 l/m 2,4 km/h (1 Bft) W 0,25 h 0,000 mm 2,0 UV-I 382 W/m 14,3 C 18,3 C 4,6 km/h (1 Bft) 0,00 %
27.07.2015 12:00 19,7 C 65 % 1007,4 hPa 0,0 l/m 2,5 km/h (1 Bft) S 0,33 h 0,000 mm 2,5 UV-I 302 W/m 12,8 C 19,6 C 5,3 km/h (1 Bft) 0,00 %
27.07.2015 13:00 22,2 C 54 % 1006,8 hPa 0,0 l/m 3,8 km/h (1 Bft) W-SW 0,17 h 0,000 mm 4,4 UV-I 232 W/m 12,5 C 22,1 C 6,6 km/h (2 Bft) 0,00 %
27.07.2015 14:00 22,9 C 52 % 1006,1 hPa 0,0 l/m 6,2 km/h (2 Bft) W-SW 0,17 h 0,000 mm 3,7 UV-I 260 W/m 12,4 C 22,4 C 9,2 km/h (2 Bft) 0,00 %
27.07.2015 15:00 24,4 C 45 % 1005,7 hPa 0,0 l/m 4,5 km/h (1 Bft) SW 0,00 h 0,000 mm 3,7 UV-I 116 W/m 11,6 C 24,1 C 7,9 km/h (2 Bft) 0,00 %
27.07.2015 16:00 25,0 C 39 % 1005,3 hPa 0,0 l/m 4,9 km/h (1 Bft) NO 0,00 h 0,000 mm 2,1 UV-I 155 W/m 10,0 C 24,8 C 8,3 km/h (2 Bft) 0,00 %
27.07.2015 17:00 25,2 C 34 % 1005,4 hPa 0,0 l/m 4,6 km/h (1 Bft) W-SW 0,25 h 0,000 mm 1,0 UV-I 247 W/m 8,2 C 25,0 C 7,6 km/h (2 Bft) 0,00 %
27.07.2015 18:00 21,3 C 54 % 1006,8 hPa 0,0 l/m 4,0 km/h (1 Bft) W-SW 0,83 h 0,000 mm 1,0 UV-I 664 W/m 11,5 C 21,0 C 6,3 km/h (2 Bft) 0,00 %
27.07.2015 19:00 20,9 C 52 % 1007,3 hPa 0,0 l/m 1,4 km/h (1 Bft) W-SW 1,00 h 0,000 mm 1,0 UV-I 509 W/m 10,5 C 20,9 C 3,6 km/h (1 Bft) 0,00 %
27.07.2015 20:00 18,9 C 60 % 1008,1 hPa 0,0 l/m 0,1 km/h (0 Bft) N 0,58 h 0,000 mm 0,0 UV-I 472 W/m 11,1 C 18,9 C 0,7 km/h (0 Bft) 0,00 %
27.07.2015 21:00 17,5 C 66 % 1008,7 hPa 0,0 l/m 0,1 km/h (0 Bft) N 0,00 h 0,000 mm 0,0 UV-I 0 W/m 11,1 C 17,5 C 0,7 km/h (0 Bft) 0,00 %
27.07.2015 22:00 17,1 C 71 % 1009,5 hPa 0,0 l/m 0,0 km/h (0 Bft) N 0,00 h 0,000 mm 0,0 UV-I 0 W/m 11,8 C 17,1 C 0,0 km/h (0 Bft) 0,00 %
27.07.2015 23:00 16,2 C 73 % 1009,9 hPa 0,0 l/m 0,0 km/h (0 Bft) N 0,00 h 0,000 mm 0,0 UV-I 0 W/m 11,4 C 16,2 C 0,0 km/h (0 Bft) 0,00 %
28.07.2015 00:00 17,7 C 59 % 1009,8 hPa 0,0 l/m 0,0 km/h (0 Bft) N 0,00 h 0,000 mm 0,0 UV-I 0 W/m 9,5 C 17,7 C 0,0 km/h (0 Bft) 0,00 %
28.07.2015 01:00 17,7 C 56 % 1009,7 hPa 0,0 l/m 0,0 km/h (0 Bft) N 0,00 h 0,000 mm 0,0 UV-I 0 W/m 8,8 C 17,7 C 0,0 km/h (0 Bft) 0,00 %
28.07.2015 02:00 16,9 C 60 % 1009,6 hPa 0,0 l/m 0,0 km/h (0 Bft) N 0,00 h 0,000 mm 0,0 UV-I 0 W/m 9,2 C 16,9 C 0,3 km/h (0 Bft) 0,00 %
28.07.2015 03:00 15,9 C 67 % 1009,4 hPa 0,0 l/m 0,0 km/h (0 Bft) N 0,00 h 0,000 mm 0,0 UV-I 0 W/m 9,8 C 15,9 C 0,0 km/h (0 Bft) 0,00 %
28.07.2015 04:00 15,7 C 71 % 1009,1 hPa 0,0 l/m 0,0 km/h (0 Bft) N 0,00 h 0,000 mm 0,0 UV-I 0 W/m 10,4 C 15,7 C 0,0 km/h (0 Bft) 0,00 %
28.07.2015 05:00 14,9 C 79 % 1009,0 hPa 0,0 l/m 0,0 km/h (0 Bft) N 0,00 h 0,000 mm 0,0 UV-I 0 W/m 11,2 C 14,9 C 0,0 km/h (0 Bft) 0,00 %
28.07.2015 06:00 15,5 C 76 % 1009,2 hPa 0,0 l/m 0,0 km/h (0 Bft) N 0,00 h 0,000 mm 0,0 UV-I 29 W/m 11,1 C 15,5 C 0,0 km/h (0 Bft) 0,00 %
28.07.2015 07:00 16,6 C 73 % 1009,7 hPa 0,0 l/m 0,0 km/h (0 Bft) N 0,00 h 0,000 mm 1,0 UV-I 40 W/m 11,8 C 16,6 C 0,0 km/h (0 Bft) 0,00 %
28.07.2015 08:00 18,2 C 65 % 1009,8 hPa 0,0 l/m 0,0 km/h (0 Bft) W-NW 0,00 h 0,000 mm 1,0 UV-I 65 W/m 11,6 C 18,2 C 0,3 km/h (0 Bft) 0,00 %
28.07.2015 09:00 19,5 C 54 % 1010,0 hPa 0,0 l/m 0,9 km/h (0 Bft) W-NW 0,00 h 0,000 mm 1,0 UV-I 136 W/m 10,0 C 19,5 C 2,0 km/h (1 Bft) 0,00 %
28.07.2015 10:00 20,0 C 52 % 1010,0 hPa 0,0 l/m 0,9 km/h (0 Bft) W 0,00 h 0,000 mm 1,0 UV-I 148 W/m 9,8 C 20,0 C 2,2 km/h (1 Bft) 0,00 %
28.07.2015 11:00 21,1 C 48 % 1009,9 hPa 0,0 l/m 2,2 km/h (1 Bft) N-NO 0,17 h 0,000 mm 1,6 UV-I 343 W/m 9,4 C 21,0 C 4,6 km/h (1 Bft) 0,00 %
28.07.2015 12:00 21,6 C 46 % 1009,8 hPa 0,0 l/m 3,2 km/h (1 Bft) O-NO 0,00 h 0,000 mm 1,4 UV-I 281 W/m 9,4 C 21,4 C 5,6 km/h (1 Bft) 0,00 %
28.07.2015 13:00 22,1 C 46 % 1009,6 hPa 0,0 l/m 2,4 km/h (1 Bft) W-SW 0,25 h 0,000 mm 2,1 UV-I 411 W/m 9,8 C 22,1 C 5,0 km/h (1 Bft) 0,00 %
28.07.2015 14:00 23,3 C 44 % 1009,2 hPa 0,0 l/m 1,4 km/h (1 Bft) N-NO 0,83 h 0,000 mm 2,8 UV-I 633 W/m 10,2 C 23,3 C 3,6 km/h (1 Bft) 0,00 %
28.07.2015 15:00 23,8 C 43 % 1008,8 hPa 0,0 l/m 2,0 km/h (1 Bft) N-NW 0,17 h 0,000 mm 1,5 UV-I 315 W/m 10,4 C 23,8 C 4,3 km/h (1 Bft) 0,00 %
28.07.2015 16:00 23,7 C 42 % 1008,4 hPa 0,0 l/m 1,1 km/h (1 Bft) NO 0,42 h 0,000 mm 1,5 UV-I 316 W/m 10,1 C 23,7 C 2,3 km/h (1 Bft) 0,00 %
28.07.2015 17:00 23,1 C 44 % 1008,3 hPa 0,0 l/m 1,2 km/h (1 Bft) W-SW 0,00 h 0,000 mm 1,0 UV-I 207 W/m 10,1 C 23,1 C 2,3 km/h (1 Bft) 0,00 %
28.07.2015 18:00 22,6 C 46 % 1008,2 hPa 0,0 l/m 0,2 km/h (0 Bft) W-SW 0,25 h 0,000 mm 1,0 UV-I 189 W/m 10,3 C 22,6 C 0,7 km/h (0 Bft) 0,00 %
28.07.2015 19:00 21,4 C 50 % 1008,5 hPa 0,0 l/m 0,5 km/h (0 Bft) NW 0,08 h 0,000 mm 1,0 UV-I 67 W/m 10,5 C 21,4 C 1,7 km/h (1 Bft) 0,00 %
28.07.2015 20:00 20,2 C 56 % 1008,8 hPa 0,0 l/m 0,1 km/h (0 Bft) N 0,00 h 0,000 mm 0,0 UV-I 14 W/m 11,2 C 20,2 C 0,3 km/h (0 Bft) 0,00 %
28.07.2015 21:00 18,7 C 62 % 1009,2 hPa 0,0 l/m 0,0 km/h (0 Bft) N 0,00 h 0,000 mm 0,0 UV-I 0 W/m 11,3 C 18,7 C 0,0 km/h (0 Bft) 0,00 %
28.07.2015 22:00 18,6 C 64 % 1009,9 hPa 0,0 l/m 0,2 km/h (0 Bft) N-NW 0,00 h 0,000 mm 0,0 UV-I 0 W/m 11,5 C 18,6 C 0,7 km/h (0 Bft) 0,00 %
28.07.2015 23:00 17,8 C 68 % 1010,2 hPa 0,0 l/m 0,6 km/h (0 Bft) W 0,00 h 0,000 mm 0,0 UV-I 0 W/m 11,7 C 17,8 C 2,3 km/h (1 Bft) 0,00 %
29.07.2015 00:00 17,6 C 69 % 1010,3 hPa 0,0 l/m 0,4 km/h (0 Bft) W 0,00 h 0,000 mm 0,0 UV-I 0 W/m 11,7 C 17,6 C 1,0 km/h (0 Bft) 0,00 %
29.07.2015 01:00 17,3 C 67 % 1010,8 hPa 0,0 l/m 1,8 km/h (1 Bft) W-NW 0,00 h 0,000 mm 0,0 UV-I 0 W/m 11,1 C 17,3 C 4,0 km/h (1 Bft) 0,00 %
29.07.2015 02:00 14,2 C 80 % 1011,9 hPa 0,9 l/m 1,3 km/h (1 Bft) W-SW 0,00 h 0,000 mm 0,0 UV-I 0 W/m 10,7 C 14,2 C 3,6 km/h (1 Bft) 0,00 %
29.07.2015 03:00 12,3 C 93 % 1012,9 hPa 1,8 l/m 1,2 km/h (1 Bft) W-SW 0,00 h 0,000 mm 0,0 UV-I 0 W/m 11,1 C 12,3 C 3,3 km/h (1 Bft) 0,00 %
29.07.2015 04:00 11,5 C 96 % 1013,6 hPa 3,0 l/m 0,0 km/h (0 Bft) N 0,00 h 0,000 mm 0,0 UV-I 0 W/m 10,8 C 11,5 C 0,3 km/h (0 Bft) 0,00 %
29.07.2015 05:00 11,3 C 97 % 1013,6 hPa 0,3 l/m 0,1 km/h (0 Bft) N 0,00 h 0,000 mm 0,0 UV-I 0 W/m 10,8 C 11,3 C 0,7 km/h (0 Bft) 0,00 %
29.07.2015 06:00 11,4 C 96 % 1013,5 hPa 0,0 l/m 0,0 km/h (0 Bft) N 0,00 h 0,000 mm 0,0 UV-I 15 W/m 10,8 C 11,4 C 0,0 km/h (0 Bft) 0,00 %
29.07.2015 07:00 11,9 C 96 % 1013,2 hPa 0,0 l/m 0,0 km/h (0 Bft) N 0,00 h 0,000 mm 1,0 UV-I 67 W/m 11,3 C 11,9 C 0,0 km/h (0 Bft) 0,00 %
29.07.2015 08:00 13,5 C 91 % 1012,9 hPa 0,0 l/m 0,0 km/h (0 Bft) N 0,00 h 0,000 mm 1,0 UV-I 169 W/m 12,0 C 13,5 C 0,0 km/h (0 Bft) 0,00 %
29.07.2015 09:00 15,8 C 78 % 1012,4 hPa 0,0 l/m 0,2 km/h (0 Bft) O-SO 0,83 h 0,000 mm 2,1 UV-I 420 W/m 11,9 C 15,8 C 0,7 km/h (0 Bft) 0,00 %
29.07.2015 10:00 18,9 C 63 % 1011,7 hPa 0,0 l/m 0,5 km/h (0 Bft) SO 0,92 h 0,000 mm 3,1 UV-I 626 W/m 11,5 C 18,9 C 1,0 km/h (0 Bft) 0,00 %
29.07.2015 11:00 21,1 C 56 % 1011,0 hPa 0,0 l/m 0,2 km/h (0 Bft) O-NO 1,00 h 0,000 mm 3,6 UV-I 705 W/m 11,9 C 21,1 C 1,0 km/h (0 Bft) 0,00 %
29.07.2015 12:00 21,1 C 54 % 1010,3 hPa 0,0 l/m 1,0 km/h (0 Bft) O-SO 0,92 h 0,000 mm 3,9 UV-I 696 W/m 11,4 C 21,1 C 2,6 km/h (1 Bft) 0,00 %
29.07.2015 13:00 21,6 C 53 % 1009,5 hPa 0,0 l/m 1,0 km/h (0 Bft) O-NO 1,02 h 0,000 mm 4,3 UV-I 789 W/m 11,5 C 21,6 C 2,3 km/h (1 Bft) 0,00 %
29.07.2015 14:00 22,0 C 53 % 1008,9 hPa 0,0 l/m 2,2 km/h (1 Bft) NO 0,92 h 0,000 mm 3,7 UV-I 742 W/m 11,8 C 22,0 C 4,3 km/h (1 Bft) 0,00 %
29.07.2015 15:00 23,1 C 49 % 1008,5 hPa 0,0 l/m 1,2 km/h (1 Bft) NO 0,83 h 0,000 mm 2,9 UV-I 698 W/m 11,7 C 23,0 C 3,0 km/h (1 Bft) 0,00 %
29.07.2015 16:00 22,1 C 55 % 1008,7 hPa 0,0 l/m 0,1 km/h (0 Bft) NO 0,00 h 0,000 mm 1,0 UV-I 124 W/m 12,6 C 22,1 C 0,3 km/h (0 Bft) 0,00 %
29.07.2015 17:00 19,5 C 75 % 1009,4 hPa 0,3 l/m 0,0 km/h (0 Bft) N 0,00 h 0,000 mm 1,0 UV-I 78 W/m 14,9 C 19,5 C 0,3 km/h (0 Bft) 0,00 %
29.07.2015 18:00 18,4 C 81 % 1009,7 hPa 0,0 l/m 0,0 km/h (0 Bft) N 0,08 h 0,000 mm 1,0 UV-I 76 W/m 15,2 C 18,4 C 0,3 km/h (0 Bft) 0,00 %
29.07.2015 19:00 18,3 C 80 % 1009,9 hPa 0,0 l/m 0,8 km/h (0 Bft) W-SW 0,08 h 0,000 mm 1,0 UV-I 54 W/m 14,7 C 18,3 C 2,3 km/h (1 Bft) 0,00 %
29.07.2015 20:00 17,3 C 83 % 1010,0 hPa 0,0 l/m 0,0 km/h (0 Bft) N 0,00 h 0,000 mm 0,0 UV-I 1 W/m 14,4 C 17,3 C 0,3 km/h (0 Bft) 0,00 %
29.07.2015 21:00 16,5 C 89 % 1011,0 hPa 3,3 l/m 0,7 km/h (0 Bft) NW 0,00 h 0,000 mm 0,0 UV-I 0 W/m 14,7 C 16,5 C 2,3 km/h (1 Bft) 0,00 %
29.07.2015 22:00 15,3 C 95 % 1012,3 hPa 0,6 l/m 1,5 km/h (1 Bft) W-SW 0,00 h 0,000 mm 0,0 UV-I 0 W/m 14,4 C 15,3 C 4,6 km/h (1 Bft) 0,00 %
29.07.2015 23:00 14,5 C 93 % 1013,5 hPa 0,0 l/m 1,1 km/h (0 Bft) SW 0,00 h 0,000 mm 0,0 UV-I 0 W/m 13,4 C 14,5 C 2,7 km/h (1 Bft) 0,00 %
30.07.2015 00:00 14,2 C 94 % 1014,2 hPa 0,0 l/m 0,3 km/h (0 Bft) W-SW 0,00 h 0,000 mm 0,0 UV-I 0 W/m 13,3 C 14,2 C 0,7 km/h (0 Bft) 0,00 %
30.07.2015 01:00 14,0 C 95 % 1014,6 hPa 0,0 l/m 0,7 km/h (0 Bft) O 0,00 h 0,000 mm 0,0 UV-I 0 W/m 13,2 C 14,0 C 3,0 km/h (1 Bft) 0,00 %
30.07.2015 02:00 13,3 C 92 % 1015,0 hPa 0,0 l/m 1,1 km/h (1 Bft) W-NW 0,00 h 0,000 mm 0,0 UV-I 0 W/m 12,1 C 13,3 C 2,7 km/h (1 Bft) 0,00 %
30.07.2015 03:00 12,9 C 94 % 1015,3 hPa 0,0 l/m 2,9 km/h (1 Bft) W-SW 0,00 h 0,000 mm 0,0 UV-I 0 W/m 12,0 C 12,9 C 5,0 km/h (1 Bft) 0,00 %
30.07.2015 04:00 12,5 C 94 % 1015,2 hPa 0,0 l/m 0,1 km/h (0 Bft) N-NW 0,00 h 0,000 mm 0,0 UV-I 0 W/m 11,6 C 12,5 C 0,7 km/h (0 Bft) 0,00 %
30.07.2015 05:00 12,0 C 96 % 1015,2 hPa 0,0 l/m 0,0 km/h (0 Bft) N 0,00 h 0,000 mm 0,0 UV-I 8 W/m 11,3 C 12,0 C 0,0 km/h (0 Bft) 0,00 %
30.07.2015 06:00 12,1 C 96 % 1015,6 hPa 0,0 l/m 0,0 km/h (0 Bft) N 0,00 h 0,000 mm 0,0 UV-I 44 W/m 11,5 C 12,1 C 0,0 km/h (0 Bft) 0,00 %
30.07.2015 07:00 13,4 C 90 % 1015,6 hPa 0,0 l/m 0,0 km/h (0 Bft) N 0,50 h 0,000 mm 1,0 UV-I 179 W/m 11,7 C 13,4 C 0,0 km/h (0 Bft) 0,00 %
30.07.2015 08:00 16,8 C 70 % 1015,6 hPa 0,0 l/m 0,8 km/h (0 Bft) NW 0,92 h 0,000 mm 1,3 UV-I 341 W/m 11,1 C 16,8 C 1,3 km/h (1 Bft) 0,00 %
30.07.2015 09:00 19,0 C 58 % 1015,8 hPa 0,0 l/m 0,8 km/h (0 Bft) W-SW 0,83 h 0,000 mm 1,9 UV-I 481 W/m 10,4 C 19,0 C 2,0 km/h (1 Bft) 0,00 %
30.07.2015 10:00 19,7 C 53 % 1015,8 hPa 0,0 l/m 0,6 km/h (0 Bft) W-NW 0,67 h 0,000 mm 2,5 UV-I 537 W/m 9,8 C 19,7 C 1,3 km/h (1 Bft) 0,00 %
30.07.2015 11:00 19,6 C 52 % 1015,8 hPa 0,0 l/m 0,5 km/h (0 Bft) W 0,08 h 0,000 mm 1,7 UV-I 347 W/m 9,5 C 19,6 C 1,3 km/h (1 Bft) 0,00 %
30.07.2015 12:00 19,3 C 52 % 1015,7 hPa 0,0 l/m 1,1 km/h (1 Bft) W 0,25 h 0,000 mm 2,1 UV-I 389 W/m 9,2 C 19,3 C 3,0 km/h (1 Bft) 0,00 %
30.07.2015 13:00 21,0 C 46 % 1015,4 hPa 0,0 l/m 0,6 km/h (0 Bft) SW 0,50 h 0,000 mm 3,0 UV-I 570 W/m 8,9 C 21,0 C 0,7 km/h (0 Bft) 0,00 %
30.07.2015 14:00 21,4 C 43 % 1015,1 hPa 0,0 l/m 0,3 km/h (0 Bft) W-NW 0,42 h 0,000 mm 2,2 UV-I 454 W/m 8,3 C 21,4 C 1,3 km/h (1 Bft) 0,00 %
30.07.2015 15:00 21,3 C 43 % 1015,0 hPa 0,0 l/m 1,1 km/h (1 Bft) W-NW 0,58 h 0,000 mm 2,2 UV-I 460 W/m 8,2 C 21,3 C 2,7 km/h (1 Bft) 0,00 %
30.07.2015 16:00 21,3 C 42 % 1014,8 hPa 0,0 l/m 1,7 km/h (1 Bft) W-NW 0,92 h 0,000 mm 2,2 UV-I 596 W/m 7,8 C 21,3 C 3,0 km/h (1 Bft) 0,00 %
30.07.2015 17:00 21,7 C 40 % 1014,5 hPa 0,0 l/m 0,8 km/h (0 Bft) W-NW 1,00 h 0,000 mm 1,0 UV-I 504 W/m 7,6 C 21,7 C 2,0 km/h (1 Bft) 0,00 %
30.07.2015 18:00 21,4 C 42 % 1014,3 hPa 0,0 l/m 0,4 km/h (0 Bft) W-SW 0,83 h 0,000 mm 1,0 UV-I 412 W/m 8,0 C 21,4 C 1,0 km/h (0 Bft) 0,00 %
30.07.2015 19:00 19,7 C 50 % 1014,7 hPa 0,0 l/m 0,0 km/h (0 Bft) N 0,58 h 0,000 mm 1,0 UV-I 130 W/m 8,8 C 19,7 C 0,3 km/h (0 Bft) 0,00 %
30.07.2015 20:00 16,4 C 64 % 1015,0 hPa 0,0 l/m 0,0 km/h (0 Bft) N 0,00 h 0,000 mm 0,0 UV-I 17 W/m 9,6 C 16,4 C 0,0 km/h (0 Bft) 0,00 %
30.07.2015 21:00 15,4 C 70 % 1015,6 hPa 0,0 l/m 0,0 km/h (0 Bft) N 0,00 h 0,000 mm 0,0 UV-I 0 W/m 9,9 C 15,4 C 0,0 km/h (0 Bft) 0,00 %
30.07.2015 22:00 15,6 C 70 % 1016,1 hPa 0,0 l/m 0,0 km/h (0 Bft) N 0,00 h 0,000 mm 0,0 UV-I 0 W/m 10,2 C 15,6 C 0,0 km/h (0 Bft) 0,00 %
30.07.2015 23:00 15,3 C 73 % 1016,1 hPa 0,0 l/m 0,0 km/h (0 Bft) N 0,00 h 0,000 mm 0,0 UV-I 0 W/m 10,4 C 15,3 C 0,0 km/h (0 Bft) 0,00 %
31.07.2015 00:00 14,8 C 75 % 1016,3 hPa 0,0 l/m 0,0 km/h (0 Bft) N 0,00 h 0,000 mm 0,0 UV-I 0 W/m 10,3 C 14,8 C 0,0 km/h (0 Bft) 0,00 %
31.07.2015 01:00 14,9 C 74 % 1016,7 hPa 0,0 l/m 0,0 km/h (0 Bft) N 0,00 h 0,000 mm 0,0 UV-I 0 W/m 10,3 C 14,9 C 0,0 km/h (0 Bft) 0,00 %
31.07.2015 02:00 14,5 C 79 % 1016,7 hPa 0,0 l/m 0,0 km/h (0 Bft) N 0,00 h 0,000 mm 0,0 UV-I 0 W/m 10,8 C 14,5 C 0,0 km/h (0 Bft) 0,00 %
31.07.2015 03:00 13,9 C 81 % 1016,6 hPa 0,0 l/m 0,0 km/h (0 Bft) N 0,00 h 0,000 mm 0,0 UV-I 0 W/m 10,7 C 13,9 C 0,0 km/h (0 Bft) 0,00 %
31.07.2015 04:00 13,2 C 83 % 1016,7 hPa 0,0 l/m 0,0 km/h (0 Bft) N 0,00 h 0,000 mm 0,0 UV-I 0 W/m 10,3 C 13,2 C 0,0 km/h (0 Bft) 0,00 %
31.07.2015 05:00 11,8 C 89 % 1017,0 hPa 0,0 l/m 0,0 km/h (0 Bft) N 0,00 h 0,000 mm 0,0 UV-I 5 W/m 9,9 C 11,8 C 0,0 km/h (0 Bft) 0,00 %
31.07.2015 06:00 12,2 C 90 % 1017,3 hPa 0,0 l/m 0,0 km/h (0 Bft) N 0,42 h 0,000 mm 0,0 UV-I 77 W/m 10,5 C 12,2 C 0,0 km/h (0 Bft) 0,00 %
31.07.2015 07:00 14,6 C 79 % 1017,8 hPa 0,0 l/m 0,0 km/h (0 Bft) N 0,08 h 0,000 mm 1,0 UV-I 113 W/m 11,1 C 14,6 C 0,3 km/h (0 Bft) 0,00 %
31.07.2015 08:00 17,3 C 66 % 1018,3 hPa 0,0 l/m 0,2 km/h (0 Bft) W 0,75 h 0,000 mm 1,0 UV-I 323 W/m 10,8 C 17,3 C 0,7 km/h (0 Bft) 0,00 %
31.07.2015 09:00 21,0 C 49 % 1018,4 hPa 0,0 l/m 0,5 km/h (0 Bft) NO 1,00 h 0,000 mm 2,0 UV-I 489 W/m 9,9 C 21,0 C 2,0 km/h (1 Bft) 0,00 %
31.07.2015 10:00 22,8 C 41 % 1018,2 hPa 0,0 l/m 0,5 km/h (0 Bft) O-NO 1,00 h 0,000 mm 2,7 UV-I 595 W/m 8,7 C 22,8 C 2,0 km/h (1 Bft) 0,00 %
31.07.2015 11:00 23,8 C 36 % 1017,9 hPa 0,0 l/m 0,9 km/h (0 Bft) N-NO 0,92 h 0,000 mm 3,6 UV-I 694 W/m 7,8 C 23,8 C 2,0 km/h (1 Bft) 0,00 %
31.07.2015 12:00 22,7 C 34 % 1017,7 hPa 0,0 l/m 1,6 km/h (1 Bft) W-SW 0,67 h 0,000 mm 4,0 UV-I 614 W/m 6,1 C 22,5 C 3,3 km/h (1 Bft) 0,00 %
31.07.2015 13:00 22,8 C 33 % 1017,2 hPa 0,0 l/m 0,2 km/h (0 Bft) N 0,67 h 0,000 mm 3,8 UV-I 691 W/m 5,7 C 22,8 C 1,0 km/h (0 Bft) 0,00 %
31.07.2015 14:00 23,6 C 31 % 1016,9 hPa 0,0 l/m 2,0 km/h (1 Bft) O-SO 0,75 h 0,000 mm 3,5 UV-I 728 W/m 5,5 C 23,6 C 4,0 km/h (1 Bft) 0,00 %
31.07.2015 15:00 24,1 C 29 % 1016,4 hPa 0,0 l/m 0,8 km/h (0 Bft) O-NO 0,83 h 0,000 mm 2,8 UV-I 710 W/m 5,0 C 24,1 C 2,0 km/h (1 Bft) 0,00 %
31.07.2015 16:00 24,5 C 28 % 1015,5 hPa 0,0 l/m 1,8 km/h (1 Bft) N-NO 1,02 h 0,000 mm 2,0 UV-I 828 W/m 4,7 C 24,5 C 3,3 km/h (1 Bft) 0,00 %
31.07.2015 17:00 24,1 C 29 % 1015,2 hPa 0,0 l/m 3,5 km/h (1 Bft) O-SO 1,00 h 0,000 mm 1,0 UV-I 789 W/m 4,7 C 24,0 C 5,6 km/h (1 Bft) 0,00 %
31.07.2015 18:00 23,5 C 31 % 1014,8 hPa 0,0 l/m 5,4 km/h (1 Bft) O 1,00 h 0,000 mm 1,0 UV-I 637 W/m 5,5 C 23,3 C 8,3 km/h (2 Bft) 0,00 %
31.07.2015 19:00 22,6 C 33 % 1014,6 hPa 0,0 l/m 2,0 km/h (1 Bft) O-SO 1,00 h 0,000 mm 1,0 UV-I 324 W/m 5,5 C 22,6 C 4,3 km/h (1 Bft) 0,00 %
31.07.2015 20:00 19,3 C 42 % 1014,5 hPa 0,0 l/m 0,1 km/h (0 Bft) N 0,33 h 0,000 mm 0,0 UV-I 25 W/m 6,0 C 19,3 C 0,7 km/h (0 Bft) 0,00 %
31.07.2015 21:00 16,7 C 49 % 1014,6 hPa 0,0 l/m 0,3 km/h (0 Bft) O-NO 0,00 h 0,000 mm 0,0 UV-I 0 W/m 5,8 C 16,7 C 1,0 km/h (0 Bft) 0,00 %
31.07.2015 22:00 16,0 C 53 % 1014,4 hPa 0,0 l/m 0,6 km/h (0 Bft) SO 0,00 h 0,000 mm 0,0 UV-I 0 W/m 6,4 C 16,0 C 2,3 km/h (1 Bft) 0,00 %
31.07.2015 23:00 15,9 C 53 % 1013,9 hPa 0,0 l/m 0,8 km/h (0 Bft) O-NO 0,00 h 0,000 mm 0,0 UV-I 0 W/m 6,4 C 15,9 C 2,0 km/h (1 Bft) 0,00 %
01.08.2015 00:00 15,3 C 58 % 1013,8 hPa 0,0 l/m 0,0 km/h (0 Bft) N 0,00 h 0,000 mm 0,0 UV-I 0 W/m 7,2 C 15,3 C 0,0 km/h (0 Bft) 0,00 %
01.08.2015 01:00 13,9 C 67 % 1013,3 hPa 0,0 l/m 0,0 km/h (0 Bft) N 0,00 h 0,000 mm 0,0 UV-I 0 W/m 7,9 C 13,9 C 0,0 km/h (0 Bft) 0,00 %
01.08.2015 02:00 13,4 C 70 % 1013,5 hPa 0,0 l/m 0,0 km/h (0 Bft) N 0,00 h 0,000 mm 0,0 UV-I 0 W/m 8,1 C 13,4 C 0,0 km/h (0 Bft) 0,00 %
01.08.2015 03:00 12,4 C 74 % 1013,5 hPa 0,0 l/m 0,0 km/h (0 Bft) N 0,00 h 0,000 mm 0,0 UV-I 0 W/m 7,8 C 12,4 C 0,0 km/h (0 Bft) 0,00 %
01.08.2015 04:00 12,0 C 75 % 1013,3 hPa 0,0 l/m 0,0 km/h (0 Bft) N 0,00 h 0,000 mm 0,0 UV-I 0 W/m 7,8 C 12,0 C 0,0 km/h (0 Bft) 0,00 %
01.08.2015 05:00 11,2 C 79 % 1013,1 hPa 0,0 l/m 0,0 km/h (0 Bft) N 0,17 h 0,000 mm 0,0 UV-I 12 W/m 7,6 C 11,2 C 0,0 km/h (0 Bft) 0,00 %
01.08.2015 06:00 12,4 C 76 % 1013,4 hPa 0,0 l/m 0,0 km/h (0 Bft) N 1,00 h 0,000 mm 0,0 UV-I 148 W/m 8,1 C 12,4 C 0,0 km/h (0 Bft) 0,00 %
01.08.2015 07:00 17,3 C 56 % 1013,6 hPa 0,0 l/m 0,4 km/h (0 Bft) O-SO 1,00 h 0,000 mm 1,0 UV-I 298 W/m 8,4 C 17,3 C 0,7 km/h (0 Bft) 0,00 %
01.08.2015 08:00 18,5 C 52 % 1013,3 hPa 0,0 l/m 2,7 km/h (1 Bft) SO 1,02 h 0,000 mm 1,1 UV-I 341 W/m 8,6 C 18,4 C 4,3 km/h (1 Bft) 0,00 %
01.08.2015 09:00 21,5 C 43 % 1013,4 hPa 0,0 l/m 2,6 km/h (1 Bft) O-SO 1,00 h 0,000 mm 2,0 UV-I 460 W/m 8,4 C 21,4 C 5,3 km/h (1 Bft) 0,00 %
01.08.2015 10:00 24,2 C 37 % 1013,6 hPa 0,0 l/m 1,2 km/h (1 Bft) O-SO 1,00 h 0,000 mm 2,8 UV-I 622 W/m 8,6 C 24,2 C 2,3 km/h (1 Bft) 0,00 %
01.08.2015 11:00 25,6 C 33 % 1013,7 hPa 0,0 l/m 2,1 km/h (1 Bft) O 1,00 h 0,000 mm 4,1 UV-I 737 W/m 8,1 C 25,6 C 4,3 km/h (1 Bft) 0,00 %
01.08.2015 12:00 26,3 C 31 % 1013,5 hPa 0,0 l/m 2,8 km/h (1 Bft) O-SO 1,00 h 0,000 mm 4,9 UV-I 801 W/m 7,8 C 26,3 C 5,3 km/h (1 Bft) 0,00 %
01.08.2015 13:00 27,7 C 30 % 1013,5 hPa 0,0 l/m 1,7 km/h (1 Bft) O-SO 1,00 h 0,000 mm 4,6 UV-I 947 W/m 8,5 C 27,7 C 4,0 km/h (1 Bft) 0,00 %
01.08.2015 14:00 28,9 C 28 % 1013,2 hPa 0,0 l/m 1,2 km/h (1 Bft) O 1,00 h 0,000 mm 3,5 UV-I 767 W/m 8,7 C 28,9 C 3,3 km/h (1 Bft) 0,00 %
01.08.2015 15:00 29,2 C 27 % 1012,8 hPa 0,0 l/m 0,6 km/h (0 Bft) N-NO 1,00 h 0,000 mm 2,5 UV-I 690 W/m 8,4 C 29,2 C 1,7 km/h (1 Bft) 0,00 %
01.08.2015 16:00 29,8 C 27 % 1012,8 hPa 0,0 l/m 1,1 km/h (1 Bft) N-NW 1,00 h 0,000 mm 2,3 UV-I 632 W/m 8,8 C 29,8 C 2,0 km/h (1 Bft) 0,00 %
01.08.2015 17:00 27,8 C 32 % 1012,7 hPa 0,0 l/m 0,1 km/h (0 Bft) N 0,17 h 0,000 mm 1,0 UV-I 205 W/m 9,5 C 27,8 C 0,3 km/h (0 Bft) 0,00 %
01.08.2015 18:00 24,9 C 42 % 1012,9 hPa 0,0 l/m 1,6 km/h (1 Bft) NW 0,00 h 0,000 mm 1,0 UV-I 95 W/m 11,1 C 24,9 C 3,6 km/h (1 Bft) 0,00 %
01.08.2015 19:00 22,5 C 51 % 1013,1 hPa 0,0 l/m 1,3 km/h (1 Bft) W-SW 0,00 h 0,000 mm 0,0 UV-I 46 W/m 11,9 C 22,5 C 3,0 km/h (1 Bft) 0,00 %
01.08.2015 20:00 21,4 C 54 % 1013,3 hPa 0,0 l/m 1,6 km/h (1 Bft) NW 0,00 h 0,000 mm 0,0 UV-I 10 W/m 11,8 C 21,4 C 3,3 km/h (1 Bft) 0,00 %
01.08.2015 21:00 20,3 C 57 % 1014,2 hPa 0,0 l/m 2,1 km/h (1 Bft) NW 0,00 h 0,000 mm 0,0 UV-I 0 W/m 11,5 C 20,3 C 3,6 km/h (1 Bft) 0,00 %
01.08.2015 22:00 19,7 C 60 % 1014,8 hPa 0,0 l/m 1,9 km/h (1 Bft) W 0,00 h 0,000 mm 0,0 UV-I 0 W/m 11,6 C 19,7 C 3,6 km/h (1 Bft) 0,00 %
01.08.2015 23:00 19,1 C 61 % 1015,3 hPa 0,0 l/m 2,7 km/h (1 Bft) W-SW 0,00 h 0,000 mm 0,0 UV-I 0 W/m 11,4 C 19,1 C 5,0 km/h (1 Bft) 0,00 %
02.08.2015 00:00 18,6 C 64 % 1015,8 hPa 0,0 l/m 1,2 km/h (1 Bft) N-NO 0,00 h 0,000 mm 0,0 UV-I 0 W/m 11,6 C 18,6 C 3,3 km/h (1 Bft) 0,00 %
02.08.2015 01:00 17,1 C 77 % 1016,3 hPa 0,3 l/m 3,3 km/h (1 Bft) W-SW 0,00 h 0,000 mm 0,0 UV-I 0 W/m 13,0 C 17,1 C 6,3 km/h (2 Bft) 0,00 %
02.08.2015 02:00 15,4 C 90 % 1016,7 hPa 0,3 l/m 2,3 km/h (1 Bft) S 0,00 h 0,000 mm 0,0 UV-I 0 W/m 13,8 C 15,3 C 5,0 km/h (1 Bft) 0,00 %
02.08.2015 03:00 14,9 C 94 % 1016,6 hPa 0,3 l/m 0,6 km/h (0 Bft) W-NW 0,00 h 0,000 mm 0,0 UV-I 0 W/m 14,0 C 14,9 C 2,0 km/h (1 Bft) 0,00 %
02.08.2015 04:00 14,7 C 95 % 1016,8 hPa 0,0 l/m 1,1 km/h (1 Bft) NO 0,00 h 0,000 mm 0,0 UV-I 0 W/m 14,0 C 14,7 C 3,3 km/h (1 Bft) 0,00 %
02.08.2015 05:00 14,6 C 95 % 1017,3 hPa 0,3 l/m 1,0 km/h (0 Bft) W 0,00 h 0,000 mm 0,0 UV-I 0 W/m 13,9 C 14,6 C 3,0 km/h (1 Bft) 0,00 %
02.08.2015 06:00 14,6 C 96 % 1017,8 hPa 0,3 l/m 0,2 km/h (0 Bft) W-SW 0,00 h 0,000 mm 0,0 UV-I 4 W/m 14,0 C 14,6 C 1,0 km/h (0 Bft) 0,00 %
02.08.2015 07:00 14,8 C 97 % 1018,4 hPa 2,7 l/m 0,1 km/h (0 Bft) N 0,00 h 0,000 mm 0,0 UV-I 29 W/m 14,3 C 14,8 C 0,3 km/h (0 Bft) 0,00 %
02.08.2015 08:00 14,9 C 97 % 1018,8 hPa 1,8 l/m 0,6 km/h (0 Bft) NW 0,00 h 0,000 mm 1,0 UV-I 79 W/m 14,5 C 14,9 C 1,7 km/h (1 Bft) 0,00 %
02.08.2015 09:00 15,2 C 96 % 1019,1 hPa 0,3 l/m 0,3 km/h (0 Bft) W 0,00 h 0,000 mm 1,0 UV-I 103 W/m 14,7 C 15,2 C 0,7 km/h (0 Bft) 0,00 %
02.08.2015 10:00 15,4 C 95 % 1019,6 hPa 0,3 l/m 1,3 km/h (1 Bft) N-NO 0,00 h 0,000 mm 1,0 UV-I 131 W/m 14,7 C 15,4 C 3,0 km/h (1 Bft) 0,00 %
02.08.2015 11:00 15,7 C 94 % 1020,2 hPa 1,2 l/m 0,0 km/h (0 Bft) N 0,00 h 0,000 mm 1,0 UV-I 155 W/m 14,7 C 15,7 C 0,0 km/h (0 Bft) 0,00 %
02.08.2015 12:00 15,9 C 93 % 1020,6 hPa 0,0 l/m 0,5 km/h (0 Bft) W-SW 0,00 h 0,000 mm 1,0 UV-I 141 W/m 14,8 C 15,9 C 1,3 km/h (1 Bft) 0,00 %
02.08.2015 13:00 16,5 C 91 % 1020,7 hPa 0,0 l/m 1,7 km/h (1 Bft) O 0,00 h 0,000 mm 1,0 UV-I 207 W/m 15,0 C 16,5 C 3,6 km/h (1 Bft) 0,00 %
02.08.2015 14:00 17,1 C 88 % 1020,7 hPa 0,0 l/m 2,0 km/h (1 Bft) W-SW 0,00 h 0,000 mm 1,0 UV-I 235 W/m 15,1 C 17,1 C 5,0 km/h (1 Bft) 0,00 %
02.08.2015 15:00 17,9 C 83 % 1020,8 hPa 0,0 l/m 0,2 km/h (0 Bft) N 0,00 h 0,000 mm 1,0 UV-I 227 W/m 14,9 C 17,9 C 1,7 km/h (1 Bft) 0,00 %
02.08.2015 16:00 19,0 C 76 % 1020,8 hPa 0,0 l/m 0,3 km/h (0 Bft) W-NW 0,50 h 0,000 mm 1,4 UV-I 333 W/m 14,7 C 19,0 C 1,0 km/h (0 Bft) 0,00 %
02.08.2015 17:00 19,6 C 73 % 1020,6 hPa 0,0 l/m 0,0 km/h (0 Bft) N 0,00 h 0,000 mm 1,0 UV-I 192 W/m 14,6 C 19,6 C 0,3 km/h (0 Bft) 0,00 %
02.08.2015 18:00 19,7 C 71 % 1020,3 hPa 0,0 l/m 0,0 km/h (0 Bft) N 0,58 h 0,000 mm 1,0 UV-I 193 W/m 14,3 C 19,7 C 0,0 km/h (0 Bft) 0,00 %
02.08.2015 19:00 19,4 C 74 % 1020,0 hPa 0,0 l/m 0,2 km/h (0 Bft) O-SO 0,75 h 0,000 mm 1,0 UV-I 113 W/m 14,5 C 19,4 C 1,0 km/h (0 Bft) 0,00 %
02.08.2015 20:00 17,0 C 86 % 1020,0 hPa 0,0 l/m 0,0 km/h (0 Bft) N 0,00 h 0,000 mm 0,0 UV-I 10 W/m 14,6 C 17,0 C 0,0 km/h (0 Bft) 0,00 %
02.08.2015 21:00 16,4 C 91 % 1020,7 hPa 0,0 l/m 0,0 km/h (0 Bft) N 0,00 h 0,000 mm 0,0 UV-I 0 W/m 14,9 C 16,4 C 0,0 km/h (0 Bft) 0,00 %
02.08.2015 22:00 15,6 C 94 % 1020,9 hPa 0,0 l/m 0,3 km/h (0 Bft) O-SO 0,00 h 0,000 mm 0,0 UV-I 0 W/m 14,7 C 15,6 C 0,7 km/h (0 Bft) 0,00 %
02.08.2015 23:00 14,7 C 96 % 1021,0 hPa 0,0 l/m 0,0 km/h (0 Bft) N 0,00 h 0,000 mm 0,0 UV-I 0 W/m 14,0 C 14,7 C 0,0 km/h (0 Bft) 0,00 %
Min-Datum _ 01.08.15 01.08.15 27.07.15 - 27.07.15 - - - - - 31.07.15 01.08.15 27.07.15 27.07.15
_ Min-Zeit 05:56 16:12 16:29 - 00:04 - - - - - 17:26 05:56 00:04 00:04
Minimum _ 10,9 C 23 % 1005,2 hPa - 0,0 km/h (0 Bft) - - - - - 3,6 C 10,9 C 0,0 km/h (0 Bft) 0,00 %
Max-Datum _ 01.08.15 02.08.15 02.08.15 29.07.15 27.07.15 - 29.07.15 27.07.15 27.07.15 01.08.15 29.07.15 01.08.15 27.07.15 27.07.15
_ Max-Zeit 16:17 08:13 23:09 21:43 17:24 - 13:13 00:04 12:59 13:52 17:48 16:17 17:24 00:04
Maximum _ 30,5 C 98 % 1021,1 hPa 3,3 l/m 19,8 km/h
W-SW (3 Bft)
- 0,10 h 0,000 mm 6,0 UV-I 1258 W/m 15,8 C 30,5 C 28,1 km/h
SW (4 Bft)
0,00 %
Durchschnitt _ 18,2 C 66 % 1013,2 hPa #20,7 l/m 0,9 km/h (0 Bft) W-SW #45:08 h #0,000 mm 1,9 UV-I 318 W/m 10,9 C 18,2 C 1,9 km/h (1 Bft) 0,00 %